createdAt,value
2019-04-30T00:07:46.281Z,98234.44
2019-04-30T00:10:40.125Z,98235.55
2019-04-30T00:13:20.662Z,98229.30
2019-04-30T00:15:58.766Z,98232.41
2019-04-30T00:18:39.560Z,98236.37
2019-04-30T00:21:30.927Z,98230.56
2019-04-30T00:24:00.731Z,98229.30
2019-04-30T00:26:52.594Z,98228.98
2019-04-30T00:29:30.865Z,98221.36
2019-04-30T00:32:04.981Z,98214.53
2019-04-30T00:34:45.574Z,98218.03
2019-04-30T00:37:20.512Z,98228.31
2019-04-30T00:39:51.348Z,98226.04
2019-04-30T00:42:39.998Z,98227.09
2019-04-30T00:48:05.974Z,98228.52
2019-04-30T00:50:41.324Z,98234.48
2019-04-30T00:53:12.345Z,98225.06
2019-04-30T00:56:00.824Z,98227.89
2019-04-30T00:58:49.749Z,98219.04
2019-04-30T01:01:43.497Z,98227.66
2019-04-30T01:04:34.981Z,98216.84
2019-04-30T01:13:11.824Z,98213.12
2019-04-30T01:15:58.805Z,98214.91
2019-04-30T01:18:34.449Z,98213.97
2019-04-30T01:21:09.765Z,98206.70
2019-04-30T01:26:42.124Z,98205.98
2019-04-30T01:29:11.706Z,98204.27
2019-04-30T01:31:41.055Z,98195.63
2019-04-30T01:34:22.405Z,98195.16
2019-04-30T01:36:52.318Z,98193.86
2019-04-30T01:40:13.616Z,98197.48
2019-04-30T01:45:53.179Z,98193.86
2019-04-30T01:48:22.515Z,98192.72
2019-04-30T01:50:51.856Z,98187.37
2019-04-30T01:53:21.210Z,98184.31
2019-04-30T01:56:09.670Z,98184.31
2019-04-30T02:01:39.043Z,98181.08
2019-04-30T02:04:08.608Z,98186.56
2019-04-30T02:06:39.171Z,98174.61
2019-04-30T02:09:14.439Z,98181.47
2019-04-30T02:11:43.921Z,98180.88
2019-04-30T02:14:13.503Z,98184.27
2019-04-30T02:16:42.859Z,98181.73
2019-04-30T02:19:12.198Z,98173.73
2019-04-30T02:21:41.531Z,98178.12
2019-04-30T02:24:11.186Z,98176.33
2019-04-30T02:27:01.011Z,98177.36
2019-04-30T02:29:30.364Z,98182.31
2019-04-30T02:32:00.500Z,98179.66
2019-04-30T02:37:50.570Z,98182.46
2019-04-30T02:59:21.457Z,98181.98
2019-04-30T03:01:50.796Z,98177.22
2019-04-30T03:04:25.997Z,98179.55
2019-04-30T03:06:55.521Z,98175.22
2019-04-30T03:09:24.855Z,98179.91
2019-04-30T03:11:54.189Z,98177.73
2019-04-30T03:14:23.545Z,98175.48
2019-04-30T03:17:12.005Z,98168.90
2019-04-30T03:22:36.698Z,98164.55
2019-04-30T03:28:09.740Z,98165.78
2019-04-30T03:30:44.377Z,98159.56
2019-04-30T03:33:13.768Z,98161.89
2019-04-30T03:35:48.068Z,98156.48
2019-04-30T03:38:20.417Z,98162.09
2019-04-30T03:40:56.194Z,98160.67
2019-04-30T03:43:25.722Z,98167.67
2019-04-30T03:45:55.049Z,98161.22
2019-04-30T03:48:24.475Z,98162.69
2019-04-30T03:50:56.864Z,98165.50
2019-04-30T03:53:30.032Z,98167.14
2019-04-30T03:56:01.471Z,98158.56
2019-04-30T03:58:50.312Z,98160.12
2019-04-30T04:01:45.159Z,98161.69
2019-04-30T04:04:52.975Z,98158.61
2019-04-30T04:07:41.403Z,98160.54
2019-04-30T04:13:25.438Z,98165.99
2019-04-30T04:15:54.781Z,98171.52
2019-04-30T04:18:24.359Z,98162.83
2019-04-30T04:21:07.691Z,98164.81
2019-04-30T04:23:43.842Z,98170.22
2019-04-30T04:26:13.188Z,98167.57
2019-04-30T04:28:43.525Z,98173.02
2019-04-30T04:31:19.382Z,98175.64
2019-04-30T04:33:55.244Z,98174.02
2019-04-30T04:36:36.791Z,98174.13
2019-04-30T04:42:32.478Z,98187.47
2019-04-30T04:45:02.867Z,98187.53
2019-04-30T04:47:32.224Z,98184.31
2019-04-30T04:50:01.642Z,98187.94
2019-04-30T04:52:31.716Z,98179.54
2019-04-30T04:55:49.676Z,98185.92
2019-04-30T04:58:23.587Z,98178.03
2019-04-30T05:00:52.947Z,98181.10
2019-04-30T05:06:21.823Z,98187.53
2019-04-30T05:08:54.513Z,98190.74
2019-04-30T05:11:23.899Z,98192.66
2019-04-30T05:13:53.198Z,98190.91
2019-04-30T05:16:22.538Z,98190.36
2019-04-30T05:18:51.891Z,98194.59
2019-04-30T05:21:21.223Z,98199.18
2019-04-30T05:23:50.565Z,98199.67
2019-04-30T05:26:39.248Z,98202.48
2019-04-30T05:29:09.543Z,98200.05
2019-04-30T05:31:45.264Z,98202.80
2019-04-30T05:34:14.601Z,98202.71
2019-04-30T05:36:43.943Z,98206.70
2019-04-30T05:39:13.284Z,98203.18
2019-04-30T05:42:01.713Z,98205.33
2019-04-30T05:44:31.074Z,98210.75
2019-04-30T05:47:19.775Z,98206.25
2019-04-30T05:50:08.954Z,98210.97
2019-04-30T05:52:39.826Z,98210.70
2019-04-30T05:55:15.058Z,98213.09
2019-04-30T05:57:53.877Z,98213.73
2019-04-30T06:00:34.535Z,98212.41
2019-04-30T06:03:03.937Z,98215.47
2019-04-30T06:05:33.275Z,98220.21
2019-04-30T06:08:02.625Z,98221.80
2019-04-30T06:13:48.749Z,98216.22
2019-04-30T06:19:19.684Z,98216.90
2019-04-30T06:21:49.213Z,98218.59
2019-04-30T06:24:18.857Z,98216.80
2019-04-30T06:26:55.527Z,98216.02
2019-04-30T06:29:25.020Z,98217.08
2019-04-30T06:35:15.011Z,98213.91
2019-04-30T06:37:44.424Z,98222.11
2019-04-30T06:43:15.417Z,98223.69
2019-04-30T06:48:49.131Z,98221.12
2019-04-30T06:51:26.724Z,98226.62
2019-04-30T06:54:01.819Z,98221.29
2019-04-30T06:56:31.163Z,98229.93
2019-04-30T06:59:00.510Z,98225.58
2019-04-30T07:01:30.114Z,98231.08
2019-04-30T07:04:01.157Z,98232.63
2019-04-30T07:06:36.680Z,98241.27
2019-04-30T07:09:51.413Z,98238.06
2019-04-30T07:12:54.629Z,98241.77
2019-04-30T07:15:24.042Z,98243.62
2019-04-30T07:17:53.385Z,98251.59
2019-04-30T07:20:22.732Z,98243.84
2019-04-30T07:22:58.858Z,98249.03
2019-04-30T07:25:32.148Z,98251.15
2019-04-30T07:28:01.489Z,98252.61
2019-04-30T07:30:31.055Z,98255.59
2019-04-30T07:33:00.356Z,98250.78
2019-04-30T07:35:29.740Z,98252.16
2019-04-30T07:38:00.511Z,98250.73
2019-04-30T07:40:49.388Z,98255.41
2019-04-30T07:43:19.060Z,98255.28
2019-04-30T07:45:55.453Z,98259.86
2019-04-30T07:48:26.571Z,98265.61
2019-04-30T07:51:15.475Z,98260.77
2019-04-30T07:53:51.111Z,98266.38
2019-04-30T07:56:28.017Z,98267.67
2019-04-30T07:59:11.262Z,98267.99
2019-04-30T08:02:00.728Z,98265.28
2019-04-30T08:04:51.143Z,98272.94
2019-04-30T08:07:26.539Z,98270.00
2019-04-30T08:09:55.873Z,98271.66
2019-04-30T08:12:31.094Z,98267.16
2019-04-30T08:15:01.875Z,98270.92
2019-04-30T08:17:31.204Z,98275.06
2019-04-30T08:20:00.550Z,98274.00
2019-04-30T08:22:29.899Z,98276.58
2019-04-30T08:24:59.252Z,98279.83
2019-04-30T08:27:29.600Z,98277.94
2019-04-30T08:29:59.297Z,98283.59
2019-04-30T08:32:29.087Z,98283.02
2019-04-30T08:35:00.956Z,98284.71
2019-04-30T08:37:29.524Z,98292.76
2019-04-30T08:40:00.222Z,98292.72
2019-04-30T08:42:33.940Z,98293.75
2019-04-30T08:45:01.076Z,98286.52
2019-04-30T08:47:30.427Z,98289.62
2019-04-30T08:50:02.722Z,98286.56
2019-04-30T08:52:30.832Z,98287.08
2019-04-30T08:55:12.694Z,98289.70
2019-04-30T08:57:31.251Z,98281.91
2019-04-30T09:00:00.591Z,98281.56
2019-04-30T09:02:29.928Z,98289.53
2019-04-30T09:05:00.966Z,98290.39
2019-04-30T09:07:30.318Z,98283.23
2019-04-30T09:10:01.731Z,98288.34
2019-04-30T09:12:30.691Z,98292.77
2019-04-30T09:15:00.030Z,98296.72
2019-04-30T09:17:29.747Z,98301.03
2019-04-30T09:19:59.197Z,98298.39
2019-04-30T09:22:29.318Z,98294.27
2019-04-30T09:24:59.282Z,98298.70
2019-04-30T09:27:29.635Z,98305.89
2019-04-30T09:29:59.175Z,98306.59
2019-04-30T09:32:29.118Z,98311.73
2019-04-30T09:34:58.806Z,98302.03
2019-04-30T09:37:28.184Z,98297.38
2019-04-30T09:39:59.196Z,98301.36
2019-04-30T09:42:29.622Z,98300.08
2019-04-30T09:44:59.658Z,98302.88
2019-04-30T09:47:29.600Z,98296.05
2019-04-30T09:49:59.627Z,98295.39
2019-04-30T09:52:30.701Z,98298.10
2019-04-30T09:55:00.508Z,98294.09
2019-04-30T09:57:30.101Z,98296.80
2019-04-30T10:00:00.584Z,98296.66
2019-04-30T10:02:30.014Z,98291.98
2019-04-30T10:04:59.841Z,98279.34
2019-04-30T10:07:29.557Z,98274.32
2019-04-30T10:09:59.144Z,98274.70
2019-04-30T10:12:29.435Z,98283.21
2019-04-30T10:14:59.305Z,98284.91
2019-04-30T10:17:36.205Z,98276.13
2019-04-30T10:20:08.293Z,98267.91
2019-04-30T10:22:39.894Z,98268.70
2019-04-30T10:25:10.747Z,98270.06
2019-04-30T10:27:40.084Z,98272.40
2019-04-30T10:30:10.846Z,98268.42
2019-04-30T10:32:40.486Z,98267.80
2019-04-30T10:35:09.968Z,98264.23
2019-04-30T10:37:39.379Z,98265.88
2019-04-30T10:40:10.354Z,98257.52
2019-04-30T10:42:39.790Z,98251.79
2019-04-30T10:45:09.946Z,98246.67
2019-04-30T10:47:39.521Z,98248.28
2019-04-30T10:50:10.031Z,98249.19
2019-04-30T10:52:39.505Z,98247.20
2019-04-30T10:55:09.488Z,98249.91
2019-04-30T10:57:39.673Z,98246.66
2019-04-30T11:00:13.995Z,98252.33
2019-04-30T11:02:43.395Z,98251.73
2019-04-30T11:05:13.676Z,98252.44
2019-04-30T11:07:43.024Z,98252.44
2019-04-30T11:10:12.582Z,98247.80
2019-04-30T11:12:41.927Z,98253.85
2019-04-30T11:15:11.598Z,98249.97
2019-04-30T11:32:39.848Z,98232.14
2019-04-30T11:38:44.164Z,98228.72
2019-04-30T11:41:13.663Z,98223.13
2019-04-30T11:43:43.003Z,98223.90
2019-04-30T11:49:31.808Z,98227.91
2019-04-30T11:52:01.143Z,98217.73
2019-04-30T11:54:49.031Z,98225.33
2019-04-30T11:57:11.732Z,98225.33
2019-04-30T11:59:41.080Z,98214.81
2019-04-30T12:02:29.671Z,98217.25
2019-04-30T12:05:20.518Z,98219.30
2019-04-30T12:20:53.572Z,98209.47
2019-04-30T12:23:22.905Z,98205.61
2019-04-30T12:25:52.243Z,98199.66
2019-04-30T12:28:21.588Z,98205.34
2019-04-30T12:30:50.990Z,98205.34
2019-04-30T12:33:20.319Z,98199.63
2019-04-30T12:35:51.296Z,98202.92
2019-04-30T12:38:20.848Z,98198.58
2019-04-30T12:40:50.186Z,98202.09
2019-04-30T12:43:19.515Z,98196.86
2019-04-30T12:46:01.882Z,98181.91
2019-04-30T12:48:24.216Z,98181.91
2019-04-30T12:51:07.232Z,98186.26
2019-04-30T12:53:47.148Z,98180.39
2019-04-30T12:56:26.723Z,98180.39
2019-04-30T12:58:49.225Z,98174.49
2019-04-30T13:01:18.558Z,98180.91
2019-04-30T13:03:56.711Z,98180.91
2019-04-30T13:06:19.590Z,98166.91
2019-04-30T13:08:51.770Z,98154.88
2019-04-30T13:11:21.319Z,98175.22
2019-04-30T13:13:51.983Z,98175.22
2019-04-30T13:16:21.842Z,98176.80
2019-04-30T13:18:51.174Z,98176.80
2019-04-30T13:21:20.505Z,98170.59
2019-04-30T13:23:49.852Z,98171.91
2019-04-30T13:26:19.178Z,98162.30
2019-04-30T13:28:50.155Z,98152.44
2019-04-30T13:31:19.422Z,98152.44
2019-04-30T13:33:51.422Z,98160.89
2019-04-30T13:36:21.343Z,98152.79
2019-04-30T13:38:52.512Z,98150.08
2019-04-30T13:41:35.730Z,98155.99
2019-04-30T13:44:05.139Z,98155.99
2019-04-30T13:46:34.543Z,98141.63
2019-04-30T13:49:03.920Z,98140.28
2019-04-30T13:51:33.288Z,98149.78
2019-04-30T13:54:02.619Z,98149.78
2019-04-30T13:56:31.955Z,98149.90
2019-04-30T13:59:02.814Z,98144.25
2019-04-30T14:01:32.154Z,98127.22
2019-04-30T14:04:12.571Z,98127.22
2019-04-30T14:07:01.523Z,98125.89
2019-04-30T14:09:32.512Z,98125.89
2019-04-30T14:12:01.905Z,98127.92
2019-04-30T14:14:31.239Z,98120.97
2019-04-30T14:17:01.198Z,98107.66
2019-04-30T14:19:30.762Z,98107.66
2019-04-30T14:22:00.246Z,98133.21
2019-04-30T14:24:29.889Z,98136.29
2019-04-30T14:26:59.700Z,98137.80
2019-04-30T14:29:30.177Z,98127.11
2019-04-30T14:31:59.548Z,98132.58
2019-04-30T14:34:28.899Z,98133.50
2019-04-30T14:36:59.351Z,98125.64
2019-04-30T14:39:29.325Z,98135.47
2019-04-30T14:41:59.870Z,98130.67
2019-04-30T14:44:34.788Z,98130.67
2019-04-30T14:47:11.718Z,98131.34
2019-04-30T14:49:59.746Z,98125.65
2019-04-30T14:52:19.316Z,98125.07
2019-04-30T14:54:50.525Z,98124.36
2019-04-30T14:57:37.679Z,98124.41
2019-04-30T15:00:18.057Z,98123.31
2019-04-30T15:02:50.237Z,98126.76
2019-04-30T15:05:19.821Z,98126.76
2019-04-30T15:07:49.149Z,98123.62
2019-04-30T15:10:18.548Z,98126.19
2019-04-30T15:12:47.886Z,98114.39
2019-04-30T15:15:19.174Z,98114.39
2019-04-30T15:17:49.334Z,98110.80
2019-04-30T15:20:19.660Z,98122.02
2019-04-30T15:22:59.838Z,98122.02
2019-04-30T15:25:34.373Z,98118.28
2019-04-30T15:28:00.227Z,98112.53
2019-04-30T15:30:29.927Z,98110.14
2019-04-30T15:33:00.913Z,98110.14
2019-04-30T15:35:30.244Z,98099.87
2019-04-30T15:37:59.756Z,98098.77
2019-04-30T15:40:29.104Z,98109.55
2019-04-30T15:43:02.348Z,98109.55
2019-04-30T15:45:31.120Z,98111.08
2019-04-30T15:48:00.452Z,98111.61
2019-04-30T15:50:29.788Z,98108.95
2019-04-30T15:52:59.131Z,98107.69
2019-04-30T15:55:28.466Z,98105.83
2019-04-30T15:57:59.510Z,98103.25
2019-04-30T16:00:31.287Z,98107.62
2019-04-30T16:03:02.454Z,98106.84
2019-04-30T16:05:33.488Z,98101.41
2019-04-30T16:08:04.476Z,98105.02
2019-04-30T16:10:35.515Z,98106.83
2019-04-30T16:13:09.674Z,98101.56
2019-04-30T16:15:39.099Z,98101.91
2019-04-30T16:18:09.760Z,98106.77
2019-04-30T16:20:39.393Z,98103.63
2019-04-30T16:23:09.186Z,98109.27
2019-04-30T16:25:39.052Z,98099.00
2019-04-30T16:28:10.081Z,98105.77
2019-04-30T16:30:39.517Z,98100.96
2019-04-30T16:33:09.512Z,98099.91
2019-04-30T16:35:38.996Z,98102.23
2019-04-30T16:38:09.294Z,98104.51
2019-04-30T16:40:38.711Z,98098.62
2019-04-30T16:43:08.038Z,98101.94
2019-04-30T16:45:38.977Z,98103.61
2019-04-30T16:48:09.782Z,98100.10
2019-04-30T16:50:39.421Z,98101.41
2019-04-30T16:53:08.765Z,98102.80
2019-04-30T16:55:38.098Z,98099.62
2019-04-30T16:58:08.990Z,98099.11
2019-04-30T17:00:39.265Z,98098.26
2019-04-30T17:03:12.790Z,98095.59
2019-04-30T17:05:59.668Z,98088.13
2019-04-30T17:08:30.651Z,98093.22
2019-04-30T17:11:01.956Z,98093.19
2019-04-30T17:13:38.994Z,98090.89
2019-04-30T17:16:11.357Z,98080.52
2019-04-30T17:18:41.751Z,98086.25
2019-04-30T17:21:11.297Z,98086.58
2019-04-30T17:23:40.626Z,98083.13
2019-04-30T17:26:10.370Z,98082.46
2019-04-30T17:28:39.706Z,98076.30
2019-04-30T17:31:09.773Z,98084.31
2019-04-30T17:33:39.158Z,98084.31
2019-04-30T17:36:11.031Z,98084.31
2019-04-30T17:38:39.530Z,98140.41
2019-04-30T17:41:08.862Z,98086.34
2019-04-30T17:43:39.502Z,98066.55
2019-04-30T17:46:09.238Z,98072.97
2019-04-30T17:48:39.414Z,98084.45
2019-04-30T17:51:09.461Z,98084.45
2019-04-30T17:53:40.743Z,98084.66
2019-04-30T17:56:10.163Z,98077.90
2019-04-30T17:58:39.496Z,98077.90
2019-04-30T18:01:09.102Z,98078.11
2019-04-30T18:03:38.825Z,98078.11
2019-04-30T18:06:09.018Z,98075.29
2019-04-30T18:08:38.356Z,98076.73
2019-04-30T18:11:07.693Z,98076.73
2019-04-30T18:13:37.091Z,98075.88
2019-04-30T18:16:08.666Z,98081.08
2019-04-30T18:18:44.503Z,98081.08
2019-04-30T18:21:33.035Z,98082.67
2019-04-30T18:24:21.486Z,98092.51
2019-04-30T18:27:11.293Z,98097.38
2019-04-30T18:29:40.923Z,98092.55
2019-04-30T18:32:10.397Z,98102.77
2019-04-30T18:34:39.677Z,98100.14
2019-04-30T18:37:09.075Z,98103.97
2019-04-30T18:39:59.970Z,98107.54
2019-04-30T18:42:34.044Z,98107.54
2019-04-30T18:45:03.536Z,98111.75
2019-04-30T18:47:32.874Z,98103.55
2019-04-30T18:50:02.208Z,98094.20
2019-04-30T18:52:31.624Z,98099.17
2019-04-30T18:55:00.955Z,98109.45
2019-04-30T18:57:30.301Z,98109.31
2019-04-30T19:00:01.531Z,98105.76
2019-04-30T19:02:49.780Z,98106.50
2019-04-30T19:11:14.389Z,98116.77
2019-04-30T19:14:03.102Z,98117.49
2019-04-30T19:16:51.635Z,98124.70
2019-04-30T19:19:59.425Z,98121.13
2019-04-30T19:22:29.448Z,98122.02
2019-04-30T19:25:02.841Z,98129.67
2019-04-30T19:27:39.053Z,98132.83
2019-04-30T19:33:42.475Z,98131.95
2019-04-30T19:39:24.488Z,98132.75
2019-04-30T19:41:53.815Z,98132.11
2019-04-30T19:44:23.179Z,98136.63
2019-04-30T19:46:52.516Z,98136.95
2019-04-30T19:49:21.849Z,98145.78
2019-04-30T19:51:53.169Z,98143.19
2019-04-30T19:54:29.387Z,98145.09
2019-04-30T19:57:04.534Z,98149.55
2019-04-30T19:59:33.996Z,98145.73
2019-04-30T20:02:03.335Z,98155.99
2019-04-30T20:04:36.259Z,98158.80
2019-04-30T20:07:22.861Z,98153.12
2019-04-30T20:10:02.771Z,98160.02
2019-04-30T20:12:32.805Z,98158.09
2019-04-30T20:15:02.460Z,98155.95
2019-04-30T20:17:43.660Z,98152.40
2019-04-30T20:20:13.146Z,98152.69
2019-04-30T20:22:42.482Z,98147.44
2019-04-30T20:25:11.898Z,98150.35
2019-04-30T20:27:41.239Z,98148.16
2019-04-30T20:30:10.661Z,98149.59
2019-04-30T20:32:40.056Z,98154.70
2019-04-30T20:38:37.575Z,98146.42
2019-04-30T20:44:02.586Z,98145.31
2019-04-30T20:46:35.143Z,98145.20
2019-04-30T20:49:11.861Z,98145.75
2019-04-30T20:51:52.705Z,98141.53
2019-04-30T20:54:31.335Z,98146.92
2019-04-30T20:57:00.680Z,98139.45
2019-04-30T20:59:30.023Z,98138.34
2019-04-30T21:01:59.653Z,98135.78
2019-04-30T21:04:28.997Z,98138.30
2019-04-30T21:06:59.467Z,98139.47
2019-04-30T21:09:48.631Z,98134.72
2019-04-30T21:12:30.100Z,98132.34
2019-04-30T21:14:59.676Z,98131.52
2019-04-30T21:17:34.871Z,98132.09
2019-04-30T21:23:19.589Z,98124.66
2019-04-30T21:25:55.621Z,98127.59
2019-04-30T21:28:24.959Z,98126.91
2019-04-30T21:30:54.288Z,98129.98
2019-04-30T21:33:42.752Z,98128.56
2019-04-30T21:39:09.040Z,98124.22
2019-04-30T21:41:49.434Z,98128.43
2019-04-30T21:44:23.909Z,98125.54
2019-04-30T21:46:53.244Z,98129.48
2019-04-30T21:49:22.582Z,98126.60
2019-04-30T21:51:51.929Z,98130.23
2019-04-30T21:54:21.250Z,98123.34
2019-04-30T21:56:50.586Z,98132.30
2019-04-30T21:59:24.545Z,98125.41
2019-04-30T22:02:00.106Z,98127.10
2019-04-30T22:04:29.448Z,98129.30
2019-04-30T22:06:59.550Z,98123.71
2019-04-30T22:09:35.330Z,98129.98
2019-04-30T22:15:25.651Z,98131.03
2019-04-30T22:18:00.499Z,98129.39
2019-04-30T22:20:29.915Z,98130.07
2019-04-30T22:23:18.337Z,98130.94
2019-04-30T22:25:49.069Z,98131.58
2019-04-30T22:28:39.161Z,98134.13
2019-04-30T22:31:14.092Z,98135.55
2019-04-30T22:33:43.436Z,98131.06
2019-04-30T22:36:29.169Z,98131.87
2019-04-30T22:44:55.345Z,98129.16
2019-04-30T22:47:24.675Z,98134.45
2019-04-30T22:49:54.016Z,98127.91
2019-04-30T22:52:23.362Z,98123.79
2019-04-30T22:54:52.709Z,98126.54
2019-04-30T22:57:34.170Z,98130.75
2019-04-30T23:06:19.957Z,98120.74
2019-04-30T23:08:49.296Z,98117.36
2019-04-30T23:11:18.644Z,98122.32
2019-04-30T23:13:48.167Z,98123.97
2019-04-30T23:16:17.500Z,98120.16
2019-04-30T23:18:46.945Z,98114.47
2019-04-30T23:21:16.294Z,98119.61
2019-04-30T23:23:45.861Z,98120.20
2019-04-30T23:26:15.200Z,98112.39
2019-04-30T23:28:44.551Z,98111.72
2019-04-30T23:31:14.128Z,98107.95
2019-04-30T23:33:43.460Z,98107.41
2019-04-30T23:36:12.832Z,98111.17
2019-04-30T23:38:42.156Z,98103.52
2019-04-30T23:41:11.505Z,98103.63
2019-04-30T23:43:40.854Z,98101.44
2019-04-30T23:46:10.201Z,98104.58
2019-04-30T23:48:39.543Z,98095.79
2019-04-30T23:51:08.894Z,98102.22
2019-04-30T23:53:38.234Z,98099.62
2019-04-30T23:56:07.577Z,98098.65
2019-04-30T23:58:36.933Z,98094.13
